Bradley, Florida
Current Conditions -  °F | °C
As of 3:50 PM on Monday 22 Dec 2014 (Local Time) from KLAL Reporting Station
Broken Clouds Broken Clouds  
Wind Chill: 79°   Ceiling: 3700
Heat Index: 81°   Visibility: 12mi
Dew Point: 70°   Wind: 10mph
Humidity: 74%   Direction: 200°SSW
Pressure: 29.92"   Gusts: NA
Location:  27.79°N, 81.98°W
Report Text: KLAL 222050Z 20009KT 12SM BKN037 BKN055 26/21 A2992
Loading
Personal Weather Stations






























Interactive Weather Map New forecast layout! Learn more

10-Day Weather Forecast

Advertisements
Track Severe Weather on mobile